LTBL/IGI METAR and TAF weather

Enter ICAO airport designator
Station Type Date Time Source
LTBL METAR 2019/12/06 01:50 UTC NOAA

LTBL 060150Z 05004KT 340V140 CAVOK 05/M00 Q1025 NOSIG RMK RWY17 03008KT 010V070


Station Type Date Time Source
LTBL Decoded METAR 2019/12/06 01:50 UTC NOAA

Izmir / Cigli, Turkey (LTBL) 38-30N 027-01E 5M
Dec 05, 2019 - 08:50 PM EST / 2019.12.06 0150 UTC
Wind: from the NE (050 degrees) at 5 MPH (4 KT) (direction variable):0
Visibility: greater than 7 mile(s):0
Temperature: 41 F (5 C)
Dew Point: 32 F (0 C)
Relative Humidity: 70%
Pressure (altimeter): 30.27 in. Hg (1025 hPa)
ob: LTBL 060150Z 05004KT 340V140 CAVOK 05/M00 Q1025 NOSIG RMK RWY17 03008KT 010V070
cycle: 2

Station Type Date Time Source
LTBL TAF UTC NOAA

Error!

Example: see airport list